Time;durP1;ratioP1;P1;durP2;ratioP2;P2;SDS_P1;SDS_P2;PMS_P1;PMS_P2;Temp;Humidity;BMP_temperature;BMP_pressure;BME280_temperature;BME280_humidity;BME280_pressure;Samples;Min_cycle;Max_cycle;Signal;HPM_P1;HPM_P2
2022/08/27 00:02:59;;;;;;;5.53;5.03;;;23.70;99.90;;;;;;6202074;28;89514;-62
2022/08/27 00:06:01;;;;;;;4.95;4.45;;;23.70;99.90;;;;;;6183235;28;89061;-63
2022/08/27 00:09:05;;;;;;;5.20;4.78;;;23.70;99.90;;;;;;6186351;28;89490;-62
2022/08/27 00:12:07;;;;;;;5.20;4.80;;;23.70;99.90;;;;;;6199960;28;86368;-63
2022/08/27 00:15:11;;;;;;;6.70;4.95;;;23.70;99.90;;;;;;6203108;28;87952;-63
2022/08/27 00:18:13;;;;;;;6.03;5.10;;;23.70;99.90;;;;;;6196850;28;89068;-63
2022/08/27 00:21:15;;;;;;;6.30;5.70;;;23.70;99.90;;;;;;6201248;28;90057;-63
2022/08/27 00:24:19;;;;;;;6.10;5.50;;;23.70;99.90;;;;;;6197520;28;89009;-63
2022/08/27 00:27:21;;;;;;;5.70;4.60;;;23.70;99.90;;;;;;6205867;28;88267;-62
2022/08/27 00:30:24;;;;;;;5.47;4.97;;;23.70;99.90;;;;;;6199817;28;89424;-62
2022/08/27 00:33:27;;;;;;;5.22;4.78;;;23.70;99.90;;;;;;6196140;28;87957;-63
2022/08/27 00:36:29;;;;;;;5.32;4.93;;;23.70;99.90;;;;;;6182589;28;87942;-63
2022/08/27 00:39:32;;;;;;;5.47;4.95;;;23.70;99.90;;;;;;6182723;28;89411;-63
2022/08/27 00:42:34;;;;;;;6.38;5.15;;;23.70;99.90;;;;;;6188176;28;88237;-63
2022/08/27 00:45:39;;;;;;;5.18;4.68;;;23.70;99.90;;;;;;6193693;28;89185;-63
2022/08/27 00:48:41;;;;;;;5.85;5.28;;;23.70;99.90;;;;;;6200840;28;89059;-62
2022/08/27 00:51:45;;;;;;;5.30;4.80;;;23.60;99.90;;;;;;6197444;28;88900;-63
2022/08/27 00:54:49;;;;;;;5.78;5.20;;;23.70;99.90;;;;;;6202868;28;88239;-63
2022/08/27 00:57:57;;;;;;;5.05;4.65;;;23.70;99.90;;;;;;6183671;28;89049;-63
2022/08/27 01:01:00;;;;;;;6.03;5.20;;;23.60;99.90;;;;;;6201790;28;88509;-62
2022/08/27 01:04:05;;;;;;;5.55;5.05;;;23.60;99.90;;;;;;6200193;28;88998;-63
2022/08/27 01:07:09;;;;;;;5.65;5.15;;;23.60;99.90;;;;;;6205888;28;88648;-63
2022/08/27 01:10:16;;;;;;;5.40;4.90;;;23.60;99.90;;;;;;6204591;28;87989;-63
2022/08/27 01:13:22;;;;;;;4.68;4.28;;;23.60;99.90;;;;;;6202578;28;88786;-63
2022/08/27 01:16:28;;;;;;;5.32;4.88;;;23.60;99.90;;;;;;6194278;28;87988;-62
2022/08/27 01:19:34;;;;;;;5.10;4.70;;;23.60;99.90;;;;;;6200887;28;89174;-63
2022/08/27 01:22:45;;;;;;;6.15;5.32;;;23.60;99.90;;;;;;6196743;28;89073;-62
2022/08/27 01:25:49;;;;;;;6.97;5.85;;;23.60;99.90;;;;;;6189310;28;89213;-63
2022/08/27 01:28:52;;;;;;;6.88;5.72;;;23.60;99.90;;;;;;6196737;28;89153;-62
2022/08/27 01:31:59;;;;;;;6.60;5.90;;;23.60;99.90;;;;;;6200588;28;87947;-63
2022/08/27 01:35:03;;;;;;;6.53;5.93;;;23.60;99.90;;;;;;6188813;28;89156;-63
2022/08/27 01:38:05;;;;;;;7.45;6.57;;;23.60;99.90;;;;;;6181873;28;89057;-62
2022/08/27 01:41:09;;;;;;;7.47;6.68;;;23.60;99.90;;;;;;6183491;28;89010;-63
2022/08/27 01:44:11;;;;;;;8.02;6.80;;;23.60;99.90;;;;;;6205529;28;88314;-63
2022/08/27 01:47:13;;;;;;;6.90;6.05;;;23.60;99.90;;;;;;6206322;28;88196;-62
2022/08/27 01:50:19;;;;;;;8.10;6.60;;;23.60;99.90;;;;;;6204024;28;88033;-63
2022/08/27 01:53:23;;;;;;;7.68;6.30;;;23.50;99.90;;;;;;6193174;28;89961;-63
2022/08/27 01:56:27;;;;;;;7.20;6.50;;;23.60;99.90;;;;;;6202093;28;89215;-63
2022/08/27 01:59:29;;;;;;;6.90;6.20;;;23.50;99.90;;;;;;6198636;28;89081;-62
2022/08/27 02:02:31;;;;;;;6.80;6.10;;;23.60;99.90;;;;;;6202690;28;89181;-62
2022/08/27 02:05:33;;;;;;;7.60;6.25;;;23.50;99.90;;;;;;6198124;28;87765;-63
2022/08/27 02:08:36;;;;;;;7.72;6.60;;;23.50;99.90;;;;;;6180991;28;87959;-62
2022/08/27 02:11:39;;;;;;;7.70;6.50;;;23.50;99.90;;;;;;6192596;28;89038;-63
2022/08/27 02:14:41;;;;;;;8.27;6.53;;;23.40;99.90;;;;;;6203492;28;88603;-63
2022/08/27 02:17:43;;;;;;;6.90;6.20;;;23.40;99.90;;;;;;6181523;28;89657;-62
2022/08/27 02:20:47;;;;;;;7.10;6.40;;;23.50;99.90;;;;;;6181185;28;89022;-63
2022/08/27 02:23:49;;;;;;;7.13;6.22;;;23.40;99.90;;;;;;6201818;28;90170;-63
2022/08/27 02:26:53;;;;;;;6.43;5.82;;;23.50;99.90;;;;;;6202798;28;89002;-62
2022/08/27 02:29:55;;;;;;;6.50;5.90;;;23.50;99.90;;;;;;6204477;28;88960;-63
2022/08/27 02:32:59;;;;;;;6.75;6.05;;;23.50;99.90;;;;;;6185662;28;88994;-63
2022/08/27 02:36:01;;;;;;;6.32;5.72;;;23.40;99.90;;;;;;6190405;28;89253;-63
2022/08/27 02:39:03;;;;;;;6.75;6.07;;;23.40;99.90;;;;;;6202657;28;88172;-63
2022/08/27 02:42:07;;;;;;;6.75;5.93;;;23.50;99.90;;;;;;6182908;28;89062;-63
2022/08/27 02:45:09;;;;;;;6.45;5.85;;;23.50;99.90;;;;;;6181129;28;88422;-63
2022/08/27 02:48:11;;;;;;;6.20;5.60;;;23.50;99.90;;;;;;6193871;28;89072;-63
2022/08/27 02:51:13;;;;;;;6.57;5.95;;;23.50;99.90;;;;;;6202125;28;89309;-63
2022/08/27 02:54:15;;;;;;;6.07;5.47;;;23.50;99.90;;;;;;6199025;28;90046;-63
2022/08/27 02:57:19;;;;;;;8.15;6.05;;;23.50;99.90;;;;;;6195386;28;89109;-63
2022/08/27 03:00:22;;;;;;;7.70;5.85;;;23.50;99.90;;;;;;6201901;28;89189;-63
2022/08/27 03:03:24;;;;;;;6.38;5.78;;;23.40;99.90;;;;;;6202465;28;88087;-63
2022/08/27 03:06:26;;;;;;;6.40;5.80;;;23.40;99.90;;;;;;6194378;28;89118;-63
2022/08/27 03:09:28;;;;;;;6.82;6.20;;;23.40;99.90;;;;;;6188746;28;89048;-63
2022/08/27 03:12:33;;;;;;;7.18;5.95;;;23.40;99.90;;;;;;6191859;28;87152;-63
2022/08/27 03:15:35;;;;;;;6.95;6.25;;;23.40;99.90;;;;;;6201670;28;87246;-63
2022/08/27 03:18:37;;;;;;;6.93;6.22;;;23.50;99.90;;;;;;6186661;28;88275;-63
2022/08/27 03:21:39;;;;;;;7.03;6.32;;;23.50;99.90;;;;;;6194750;28;89163;-63
2022/08/27 03:24:41;;;;;;;7.25;6.13;;;23.40;99.90;;;;;;6193383;28;88991;-62
2022/08/27 03:27:44;;;;;;;6.70;5.80;;;23.40;99.90;;;;;;6194012;28;89102;-62
2022/08/27 03:30:50;;;;;;;7.05;6.35;;;23.50;99.90;;;;;;6191143;28;88978;-63
2022/08/27 03:33:54;;;;;;;6.72;6.03;;;23.40;99.90;;;;;;6206603;28;89503;-63
2022/08/27 03:36:56;;;;;;;6.40;5.80;;;23.40;99.90;;;;;;6196565;28;89502;-62
2022/08/27 03:39:58;;;;;;;6.00;5.38;;;23.40;99.90;;;;;;6197057;28;89060;-63
2022/08/27 03:43:02;;;;;;;5.97;5.40;;;23.40;99.90;;;;;;6184173;28;88019;-62
2022/08/27 03:46:04;;;;;;;6.57;5.82;;;23.40;99.90;;;;;;6191424;28;87882;-62
2022/08/27 03:49:06;;;;;;;6.13;5.53;;;23.40;99.90;;;;;;6206200;28;88990;-63
2022/08/27 03:52:08;;;;;;;6.95;6.00;;;23.40;99.90;;;;;;6205187;28;89029;-63
2022/08/27 03:55:11;;;;;;;7.53;6.40;;;23.40;99.90;;;;;;6190018;28;90051;-63
2022/08/27 03:58:15;;;;;;;6.07;5.47;;;23.40;99.90;;;;;;6193589;28;89054;-63
2022/08/27 04:01:18;;;;;;;7.10;6.05;;;23.40;99.90;;;;;;6200664;28;88997;-63
2022/08/27 04:04:20;;;;;;;6.95;5.50;;;23.40;99.90;;;;;;6206767;28;89004;-63
2022/08/27 04:07:22;;;;;;;6.70;6.10;;;23.40;99.90;;;;;;6198073;28;89151;-63
2022/08/27 04:10:24;;;;;;;6.38;5.78;;;23.40;99.90;;;;;;6201996;28;88059;-63
2022/08/27 04:13:27;;;;;;;6.38;5.78;;;23.40;99.90;;;;;;6193394;28;89173;-63
2022/08/27 04:16:29;;;;;;;6.20;5.70;;;23.40;99.90;;;;;;6187210;28;87191;-63
2022/08/27 04:19:32;;;;;;;7.47;5.78;;;23.40;99.90;;;;;;6187993;28;88267;-63
2022/08/27 04:22:35;;;;;;;6.03;5.53;;;23.40;99.90;;;;;;6193403;28;88930;-63
2022/08/27 04:25:39;;;;;;;6.45;5.90;;;23.40;99.90;;;;;;6197975;28;90007;-63
2022/08/27 04:28:42;;;;;;;6.22;5.50;;;23.40;99.90;;;;;;6194970;28;89404;-62
2022/08/27 04:31:44;;;;;;;6.30;5.70;;;23.40;99.90;;;;;;6190044;28;87990;-62
2022/08/27 04:34:46;;;;;;;6.80;6.20;;;23.40;99.90;;;;;;6206341;28;89469;-63
2022/08/27 04:37:48;;;;;;;6.65;5.93;;;23.40;99.90;;;;;;6197491;28;89046;-63
2022/08/27 04:44:11;;;;;;;6.53;5.90;;;23.40;99.90;;;;;;6195730;28;88025;-63
2022/08/27 04:47:15;;;;;;;6.50;5.65;;;23.40;99.90;;;;;;6183538;28;88417;-63
2022/08/27 04:50:17;;;;;;;7.00;6.30;;;23.30;99.90;;;;;;6206960;28;89164;-62
2022/08/27 04:53:19;;;;;;;6.90;6.20;;;23.40;99.90;;;;;;6183555;28;89164;-63
2022/08/27 04:56:22;;;;;;;6.65;6.00;;;23.40;99.90;;;;;;6198737;28;89020;-63
2022/08/27 04:59:26;;;;;;;7.07;6.40;;;23.40;99.90;;;;;;6192184;28;89094;-62
2022/08/27 05:02:28;;;;;;;6.97;6.28;;;23.40;99.90;;;;;;6203711;28;88362;-62
2022/08/27 05:05:30;;;;;;;7.25;6.65;;;23.40;99.90;;;;;;6199045;28;87946;-63
2022/08/27 05:08:33;;;;;;;7.90;7.10;;;23.30;99.90;;;;;;6196070;28;88433;-62
2022/08/27 05:11:35;;;;;;;7.38;6.68;;;23.40;99.90;;;;;;6182570;28;89044;-63
2022/08/27 05:14:38;;;;;;;7.72;6.95;;;23.40;99.90;;;;;;6201782;28;87937;-63
2022/08/27 05:17:40;;;;;;;8.35;7.38;;;23.30;99.90;;;;;;6203030;28;88392;-62
2022/08/27 05:20:45;;;;;;;8.15;7.15;;;23.30;99.90;;;;;;6191159;28;89214;-63
2022/08/27 05:23:48;;;;;;;8.15;6.82;;;23.30;99.90;;;;;;6187705;28;89119;-63
2022/08/27 05:26:50;;;;;;;7.78;7.05;;;23.40;99.90;;;;;;6187535;28;90313;-63
2022/08/27 05:29:54;;;;;;;7.57;6.88;;;23.40;99.90;;;;;;6193048;28;89177;-63
2022/08/27 05:32:56;;;;;;;9.10;7.57;;;23.40;99.90;;;;;;6199532;28;88998;-63
2022/08/27 05:35:59;;;;;;;8.27;7.47;;;23.30;99.90;;;;;;6195861;28;89095;-63
2022/08/27 05:39:05;;;;;;;8.48;7.68;;;23.40;99.90;;;;;;6191997;28;87957;-63
2022/08/27 05:42:07;;;;;;;9.00;7.15;;;23.30;99.90;;;;;;6189669;28;89111;-63
2022/08/27 05:45:11;;;;;;;8.70;7.82;;;23.30;99.90;;;;;;6197947;28;88973;-63
2022/08/27 05:48:14;;;;;;;7.85;7.05;;;23.30;99.90;;;;;;6199180;28;87187;-63
2022/08/27 05:51:18;;;;;;;8.20;7.40;;;23.40;99.90;;;;;;6194694;28;89251;-64
2022/08/27 05:54:20;;;;;;;9.68;8.13;;;23.40;99.90;;;;;;6191599;28;89052;-63
2022/08/27 05:57:22;;;;;;;8.32;7.53;;;23.40;99.90;;;;;;6186861;28;90072;-63
2022/08/27 06:03:45;;;;;;;9.50;8.07;;;23.40;99.90;;;;;;6198158;28;88508;-63
2022/08/27 06:06:48;;;;;;;8.57;7.78;;;23.40;99.90;;;;;;6196323;28;89096;-63
2022/08/27 06:09:50;;;;;;;8.50;7.60;;;23.40;99.90;;;;;;6203603;28;89093;-62
2022/08/27 06:12:52;;;;;;;8.40;7.60;;;23.40;99.90;;;;;;6204000;28;89091;-63
2022/08/27 06:16:03;;;;;;;8.82;7.90;;;23.40;99.90;;;;;;6202078;28;89071;-62
2022/08/27 06:19:06;;;;;;;8.50;7.70;;;23.50;99.90;;;;;;6201706;28;88334;-62
2022/08/27 06:22:08;;;;;;;8.55;7.75;;;23.50;99.90;;;;;;6192485;28;89080;-62
2022/08/27 06:25:10;;;;;;;8.30;7.00;;;23.50;99.90;;;;;;6182017;28;89088;-62
2022/08/27 06:28:12;;;;;;;8.13;7.20;;;23.50;99.90;;;;;;6202567;28;90370;-65
2022/08/27 06:31:17;;;;;;;8.93;7.18;;;23.50;99.90;;;;;;6203404;28;88846;-63
2022/08/27 06:34:19;;;;;;;9.00;7.20;;;23.50;99.90;;;;;;6197623;28;89057;-63
2022/08/27 06:37:21;;;;;;;9.10;7.10;;;23.40;99.90;;;;;;6188418;28;89018;-63
2022/08/27 06:40:23;;;;;;;11.38;7.50;;;23.50;99.90;;;;;;6181252;28;87989;-63
2022/08/27 06:43:26;;;;;;;9.90;7.90;;;23.40;99.90;;;;;;6197427;28;88999;-63
2022/08/27 06:46:30;;;;;;;14.75;9.23;;;23.40;99.90;;;;;;6183375;28;89165;-63
2022/08/27 06:49:33;;;;;;;15.98;8.93;;;23.50;99.90;;;;;;6181489;28;88137;-63
2022/08/27 06:52:35;;;;;;;17.75;10.18;;;23.50;99.90;;;;;;6191816;28;89050;-63
2022/08/27 06:55:42;;;;;;;16.80;10.25;;;23.50;99.90;;;;;;6208241;28;87857;-63
2022/08/27 06:58:44;;;;;;;17.73;9.73;;;23.50;99.90;;;;;;6186883;28;90866;-63
2022/08/27 07:01:50;;;;;;;15.73;9.73;;;23.50;99.90;;;;;;6203625;28;89074;-63
2022/08/27 07:04:53;;;;;;;13.35;8.88;;;23.50;99.90;;;;;;6205285;28;88750;-63
2022/08/27 07:07:55;;;;;;;14.10;9.10;;;23.50;99.90;;;;;;6201436;28;89171;-63
2022/08/27 07:10:57;;;;;;;11.52;9.18;;;23.50;99.90;;;;;;6202265;28;89326;-63
2022/08/27 07:13:59;;;;;;;14.18;9.30;;;23.50;99.90;;;;;;6197740;28;89235;-63
2022/08/27 07:17:03;;;;;;;16.70;9.45;;;23.60;99.90;;;;;;6198501;28;88062;-63
2022/08/27 07:20:07;;;;;;;18.70;10.57;;;23.50;99.90;;;;;;6208061;28;88317;-64
2022/08/27 07:23:09;;;;;;;22.10;11.73;;;23.60;99.90;;;;;;6192513;28;89130;-63
2022/08/27 07:26:14;;;;;;;22.45;11.57;;;23.60;99.90;;;;;;6201637;28;88531;-63
2022/08/27 07:29:16;;;;;;;14.50;9.43;;;23.50;99.90;;;;;;6198431;28;88848;-63
2022/08/27 07:32:20;;;;;;;17.05;9.82;;;23.50;99.90;;;;;;6199869;28;89046;-64
2022/08/27 07:35:22;;;;;;;13.70;9.60;;;23.60;99.90;;;;;;6197787;28;89283;-63
2022/08/27 07:38:23;;;;;;;11.60;8.13;;;23.50;99.90;;;;;;6208009;28;89396;-63
2022/08/27 07:41:26;;;;;;;11.82;8.27;;;23.60;99.90;;;;;;6195736;28;89137;-63
2022/08/27 07:44:27;;;;;;;11.25;8.35;;;23.50;99.90;;;;;;6184112;28;89054;-63
2022/08/27 07:47:31;;;;;;;10.80;7.80;;;23.50;99.90;;;;;;6197638;28;88982;-64
2022/08/27 07:50:34;;;;;;;9.10;7.40;;;23.50;99.90;;;;;;6196033;28;88378;-63
2022/08/27 07:53:36;;;;;;;9.75;7.22;;;23.50;99.90;;;;;;6201034;28;89147;-63
2022/08/27 07:56:38;;;;;;;8.85;7.05;;;23.60;99.90;;;;;;6200937;28;88035;-63
2022/08/27 07:59:40;;;;;;;9.48;7.63;;;23.50;99.90;;;;;;6193277;28;90092;-63
2022/08/27 08:02:46;;;;;;;8.98;7.40;;;23.60;99.90;;;;;;6194586;28;89081;-63
2022/08/27 08:05:48;;;;;;;8.82;7.00;;;23.60;99.90;;;;;;6201813;28;88158;-63
2022/08/27 08:08:50;;;;;;;8.07;7.25;;;23.70;99.90;;;;;;6205421;28;89124;-64
2022/08/27 08:11:52;;;;;;;7.60;6.82;;;23.70;99.90;;;;;;6195246;28;89077;-63
2022/08/27 08:14:56;;;;;;;7.53;6.75;;;23.80;99.90;;;;;;6184014;28;88275;-64
2022/08/27 08:18:00;;;;;;;9.10;6.80;;;23.80;99.90;;;;;;6201027;28;89056;-63
2022/08/27 08:21:04;;;;;;;7.88;7.13;;;23.80;99.90;;;;;;6191331;28;87185;-64
2022/08/27 08:24:06;;;;;;;7.90;7.05;;;23.80;99.90;;;;;;6192198;28;89095;-63
2022/08/27 08:27:10;;;;;;;7.65;6.95;;;23.80;99.90;;;;;;6197835;28;89245;-64
2022/08/27 08:30:12;;;;;;;8.07;7.28;;;23.80;99.90;;;;;;6191570;28;90368;-64
2022/08/27 08:33:16;;;;;;;7.63;6.93;;;23.80;99.90;;;;;;6193039;28;89258;-64
2022/08/27 08:36:18;;;;;;;9.25;7.22;;;23.80;99.90;;;;;;6197685;28;89459;-64
2022/08/27 08:39:20;;;;;;;8.15;7.35;;;23.80;99.90;;;;;;6195735;28;88154;-64
2022/08/27 08:42:36;;;;;;;8.15;6.82;;;23.80;99.90;;;;;;6189011;28;88302;-64
2022/08/27 08:45:41;;;;;;;8.57;7.38;;;23.70;99.90;;;;;;6192532;28;88956;-64
2022/08/27 08:48:49;;;;;;;7.82;7.07;;;23.80;99.90;;;;;;6196501;28;89063;-64
2022/08/27 08:51:55;;;;;;;7.78;6.88;;;23.70;99.90;;;;;;6201826;28;86381;-64
2022/08/27 08:55:07;;;;;;;7.40;6.65;;;23.70;99.90;;;;;;6202073;28;88017;-63
2022/08/27 08:58:19;;;;;;;7.32;6.63;;;23.70;99.90;;;;;;6207299;28;88975;-64
2022/08/27 09:01:23;;;;;;;8.65;6.63;;;23.70;99.90;;;;;;6192866;28;89758;-64
2022/08/27 09:04:28;;;;;;;8.00;6.35;;;23.70;99.90;;;;;;6206091;28;87771;-64
2022/08/27 09:07:35;;;;;;;10.20;7.25;;;23.70;99.90;;;;;;6192152;28;87947;-64
2022/08/27 09:10:43;;;;;;;9.15;6.90;;;23.70;99.90;;;;;;6198400;28;87810;-64
2022/08/27 09:13:50;;;;;;;6.90;6.25;;;23.70;99.90;;;;;;6193689;28;88064;-64
2022/08/27 09:16:52;;;;;;;7.68;6.75;;;23.70;99.90;;;;;;6204542;28;89052;-64
2022/08/27 09:19:55;;;;;;;7.50;6.57;;;23.70;99.90;;;;;;6182442;28;89092;-64
2022/08/27 09:23:04;;;;;;;8.48;7.40;;;23.70;99.90;;;;;;6184285;28;87301;-64
2022/08/27 09:26:17;;;;;;;8.95;7.38;;;23.70;99.90;;;;;;6202996;28;89368;-64
2022/08/27 09:29:25;;;;;;;8.65;6.95;;;23.70;99.90;;;;;;6203209;28;87997;-64
2022/08/27 09:32:31;;;;;;;9.95;7.05;;;23.70;99.90;;;;;;6195405;28;90083;-64
2022/08/27 09:35:41;;;;;;;8.90;8.00;;;23.70;99.90;;;;;;6200393;28;89558;-64
2022/08/27 09:38:53;;;;;;;8.50;7.30;;;23.70;99.90;;;;;;6206062;28;89243;-64
2022/08/27 09:41:56;;;;;;;8.75;7.75;;;23.70;99.90;;;;;;6203191;28;88286;-64
2022/08/27 09:44:58;;;;;;;9.60;8.38;;;23.60;99.90;;;;;;6200138;28;89054;-64
2022/08/27 09:48:07;;;;;;;8.88;7.97;;;23.60;99.90;;;;;;6183821;28;88953;-64
2022/08/27 09:51:14;;;;;;;9.18;8.27;;;23.60;99.90;;;;;;6194330;28;89394;-64
2022/08/27 09:54:36;;;;;;;9.38;8.48;;;23.70;99.90;;;;;;6197295;28;90112;-64
2022/08/27 09:57:41;;;;;;;9.00;8.20;;;23.70;99.90;;;;;;6203901;28;87765;-64
2022/08/27 10:00:43;;;;;;;8.95;8.05;;;23.70;99.90;;;;;;6182675;28;89060;-64
2022/08/27 10:03:45;;;;;;;8.77;7.88;;;23.60;99.90;;;;;;6203653;28;90041;-64
2022/08/27 10:06:50;;;;;;;8.65;7.50;;;23.70;99.90;;;;;;6200164;28;89206;-64
2022/08/27 10:09:58;;;;;;;9.43;8.10;;;23.60;99.90;;;;;;6180737;28;89099;-64
2022/08/27 10:13:05;;;;;;;8.07;7.28;;;23.60;99.90;;;;;;6195101;28;89546;-64
2022/08/27 10:16:26;;;;;;;9.07;7.93;;;23.60;99.90;;;;;;6204285;28;87970;-64
2022/08/27 10:19:52;;;;;;;8.88;7.50;;;23.60;99.90;;;;;;6189151;28;88848;-64
2022/08/27 10:23:05;;;;;;;7.80;7.10;;;23.60;99.90;;;;;;6190826;28;88237;-64
2022/08/27 10:26:12;;;;;;;8.57;7.55;;;23.60;99.90;;;;;;6204983;28;88587;-64
2022/08/27 10:29:20;;;;;;;8.70;7.32;;;23.60;99.90;;;;;;6203967;28;88149;-64
2022/08/27 10:32:48;;;;;;;7.97;7.13;;;23.60;99.90;;;;;;6194115;28;89012;-64
2022/08/27 10:35:58;;;;;;;9.50;7.32;;;23.60;99.90;;;;;;6185170;28;89568;-64
2022/08/27 10:39:08;;;;;;;8.13;7.03;;;23.60;99.90;;;;;;6203364;28;87864;-64
2022/08/27 10:42:17;;;;;;;7.50;6.68;;;23.60;99.90;;;;;;6195174;28;89417;-64
2022/08/27 10:45:33;;;;;;;7.38;6.78;;;23.60;99.90;;;;;;6189381;28;89080;-64
2022/08/27 10:48:40;;;;;;;7.88;7.10;;;23.70;99.90;;;;;;6191869;28;88176;-64
2022/08/27 10:51:52;;;;;;;7.90;7.10;;;23.70;99.90;;;;;;6188545;28;88067;-64
2022/08/27 10:54:59;;;;;;;7.68;6.88;;;23.70;99.90;;;;;;6197301;28;89091;-64
2022/08/27 10:58:21;;;;;;;8.35;7.13;;;23.60;99.90;;;;;;6198080;28;88662;-64
2022/08/27 11:01:33;;;;;;;8.38;7.57;;;23.70;99.90;;;;;;6193068;28;89062;-64
2022/08/27 11:04:40;;;;;;;8.35;7.57;;;23.70;99.90;;;;;;6197790;28;89105;-64
2022/08/27 11:07:46;;;;;;;8.18;7.40;;;23.70;99.90;;;;;;6195654;28;89998;-64
2022/08/27 11:10:53;;;;;;;9.00;7.45;;;23.70;99.90;;;;;;6205170;28;88032;-64
2022/08/27 11:13:57;;;;;;;10.00;7.78;;;23.70;99.90;;;;;;6190531;28;89970;-64
2022/08/27 11:17:04;;;;;;;9.13;7.80;;;23.70;99.90;;;;;;6204071;28;87936;-64
2022/08/27 11:20:11;;;;;;;8.80;7.63;;;23.70;99.90;;;;;;6191077;28;88251;-65
2022/08/27 11:23:17;;;;;;;8.30;7.18;;;23.70;99.90;;;;;;6188080;28;88275;-65
2022/08/27 11:26:21;;;;;;;8.07;7.10;;;23.70;99.90;;;;;;6194043;28;89092;-64
2022/08/27 11:29:27;;;;;;;11.07;7.40;;;23.70;99.90;;;;;;6197365;28;88397;-64
2022/08/27 11:32:39;;;;;;;9.48;7.35;;;23.70;99.90;;;;;;6194797;28;89098;-64
2022/08/27 11:35:56;;;;;;;9.93;7.50;;;23.70;99.90;;;;;;6202614;28;87787;-63
2022/08/27 11:39:03;;;;;;;10.27;7.55;;;23.70;99.90;;;;;;6200006;28;89993;-64
2022/08/27 11:42:18;;;;;;;10.63;6.68;;;23.80;99.90;;;;;;6195270;28;89173;-65
2022/08/27 11:45:23;;;;;;;12.23;7.35;;;23.80;99.90;;;;;;6182666;28;87810;-64
2022/08/27 11:48:28;;;;;;;12.05;7.90;;;23.80;99.90;;;;;;6192163;28;89268;-67
2022/08/27 11:51:35;;;;;;;11.85;6.85;;;23.90;99.90;;;;;;6201348;28;88187;-66
2022/08/27 11:54:46;;;;;;;11.30;8.80;;;23.90;99.90;;;;;;6199130;28;89176;-66
2022/08/27 11:58:02;;;;;;;9.02;7.45;;;23.90;99.90;;;;;;6202186;28;89459;-67
2022/08/27 12:01:16;;;;;;;8.63;7.75;;;23.90;99.90;;;;;;6185659;28;88333;-66
2022/08/27 12:04:32;;;;;;;8.77;7.95;;;23.90;99.90;;;;;;6195485;28;88816;-67
2022/08/27 12:07:36;;;;;;;8.98;8.18;;;24.00;99.90;;;;;;6193073;28;87940;-66
2022/08/27 12:10:50;;;;;;;8.93;8.00;;;23.90;99.90;;;;;;6206793;28;89998;-66
2022/08/27 12:14:00;;;;;;;10.02;9.02;;;23.90;99.90;;;;;;6194168;28;88129;-66
2022/08/27 12:17:11;;;;;;;9.18;8.38;;;24.00;99.90;;;;;;6194694;28;89213;-66
2022/08/27 12:20:23;;;;;;;9.25;8.07;;;24.00;99.90;;;;;;6184069;28;89025;-65
2022/08/27 12:23:42;;;;;;;10.23;9.23;;;24.00;99.90;;;;;;6196181;28;89356;-65
2022/08/27 12:26:56;;;;;;;14.40;13.00;;;24.00;99.90;;;;;;6191876;28;89071;-66
2022/08/27 12:30:01;;;;;;;10.50;9.50;;;24.00;99.90;;;;;;6185070;28;89009;-67
2022/08/27 12:33:13;;;;;;;10.07;9.27;;;24.10;99.90;;;;;;6194083;28;88221;-67
2022/08/27 12:36:20;;;;;;;9.68;8.80;;;24.10;99.90;;;;;;6187919;28;88326;-67
2022/08/27 12:39:27;;;;;;;9.93;8.95;;;24.10;99.90;;;;;;6201812;28;89154;-67
2022/08/27 12:42:29;;;;;;;9.77;8.98;;;24.10;99.90;;;;;;6196578;28;90192;-66
2022/08/27 12:45:34;;;;;;;9.63;8.43;;;24.10;99.90;;;;;;6206337;28;89317;-66
2022/08/27 12:48:40;;;;;;;10.88;9.02;;;24.10;99.90;;;;;;6193828;28;89175;-65
2022/08/27 12:51:45;;;;;;;9.70;8.90;;;24.10;99.90;;;;;;6189625;28;88884;-66
2022/08/27 12:55:02;;;;;;;10.05;9.15;;;24.20;99.90;;;;;;6200863;28;89032;-65
2022/08/27 12:58:12;;;;;;;9.10;8.30;;;24.20;99.90;;;;;;6200848;28;89448;-66
2022/08/27 13:01:30;;;;;;;9.25;8.35;;;24.20;99.90;;;;;;6199073;28;89304;-66
2022/08/27 13:04:36;;;;;;;8.80;8.10;;;24.20;99.90;;;;;;6193243;28;88218;-66
2022/08/27 13:07:41;;;;;;;8.77;7.97;;;24.20;99.90;;;;;;6195323;28;89091;-66
2022/08/27 13:10:44;;;;;;;9.07;8.23;;;24.20;99.90;;;;;;6205633;28;89538;-66
2022/08/27 13:13:46;;;;;;;10.02;8.60;;;24.30;99.90;;;;;;6196294;28;90125;-66
2022/08/27 13:16:52;;;;;;;9.57;8.63;;;24.30;99.90;;;;;;6195722;28;88301;-66
2022/08/27 13:19:58;;;;;;;9.25;8.07;;;24.30;99.90;;;;;;6195043;28;88976;-66
2022/08/27 13:23:00;;;;;;;9.48;8.57;;;24.30;99.90;;;;;;6182305;28;88730;-66
2022/08/27 13:26:08;;;;;;;9.10;8.30;;;24.30;99.90;;;;;;6183002;28;89133;-66
2022/08/27 13:29:10;;;;;;;8.80;7.93;;;24.30;99.90;;;;;;6193279;28;89139;-66
2022/08/27 13:32:14;;;;;;;9.52;8.63;;;24.30;99.90;;;;;;6186300;28;89135;-66
2022/08/27 13:35:17;;;;;;;8.88;7.88;;;24.30;99.90;;;;;;6195810;28;88382;-67
2022/08/27 13:38:21;;;;;;;9.77;8.63;;;24.30;99.90;;;;;;6199743;28;90078;-68
2022/08/27 13:41:29;;;;;;;10.15;8.60;;;24.30;99.90;;;;;;6185582;28;87962;-67
2022/08/27 13:44:35;;;;;;;9.55;8.68;;;24.30;99.90;;;;;;6180529;28;90073;-67
2022/08/27 13:47:46;;;;;;;9.45;7.65;;;24.30;99.90;;;;;;6206371;28;89223;-67
2022/08/27 13:50:54;;;;;;;8.93;8.13;;;24.40;99.90;;;;;;6192696;28;89564;-67
2022/08/27 13:57:24;;;;;;;8.63;7.82;;;24.40;99.90;;;;;;6203000;28;88045;-67
2022/08/27 14:00:45;;;;;;;8.57;7.75;;;24.40;99.90;;;;;;6196035;28;89002;-67
2022/08/27 14:03:55;;;;;;;8.45;7.65;;;24.40;99.90;;;;;;6195720;28;89936;-67
2022/08/27 14:06:57;;;;;;;8.13;7.38;;;24.40;99.90;;;;;;6198830;28;88329;-67
2022/08/27 14:10:03;;;;;;;8.10;7.30;;;24.40;99.90;;;;;;6205834;28;88345;-67
2022/08/27 14:13:08;;;;;;;8.45;7.38;;;24.40;99.90;;;;;;6189333;28;89097;-67
2022/08/27 14:16:22;;;;;;;7.70;7.00;;;24.40;99.90;;;;;;6192628;28;88991;-67
2022/08/27 14:19:28;;;;;;;7.72;6.95;;;24.40;99.90;;;;;;6189814;28;89363;-67
2022/08/27 14:22:29;;;;;;;8.68;7.88;;;24.50;99.90;;;;;;6193256;28;89128;-67
2022/08/27 14:25:33;;;;;;;8.30;7.50;;;24.40;99.90;;;;;;6183922;28;89010;-67
2022/08/27 14:28:35;;;;;;;8.82;8.07;;;24.40;99.90;;;;;;6187939;28;89053;-67
2022/08/27 14:31:37;;;;;;;9.00;8.10;;;24.50;99.90;;;;;;6185635;28;89061;-67
2022/08/27 14:34:41;;;;;;;10.63;9.32;;;24.50;99.90;;;;;;6194126;28;87998;-67
2022/08/27 14:37:44;;;;;;;12.25;10.00;;;24.50;99.90;;;;;;6199803;28;88502;-67
2022/08/27 14:40:47;;;;;;;9.50;8.63;;;24.40;99.90;;;;;;6201181;28;89040;-67
2022/08/27 14:43:49;;;;;;;10.57;9.32;;;24.50;99.90;;;;;;6200465;28;89202;-67
2022/08/27 14:46:52;;;;;;;9.90;8.90;;;24.50;99.90;;;;;;6198329;28;90195;-67
2022/08/27 14:49:56;;;;;;;11.98;9.02;;;24.40;99.90;;;;;;6199960;28;89292;-67
2022/08/27 14:52:58;;;;;;;9.07;8.27;;;24.40;99.90;;;;;;6191995;28;89001;-67
2022/08/27 14:56:00;;;;;;;9.07;8.18;;;24.40;99.90;;;;;;6196382;28;89037;-67
2022/08/27 14:59:02;;;;;;;10.18;8.80;;;24.50;99.90;;;;;;6198533;28;89461;-68
2022/08/27 15:02:07;;;;;;;10.13;9.13;;;24.50;99.90;;;;;;6196180;28;89333;-67
2022/08/27 15:05:11;;;;;;;8.52;7.63;;;24.50;99.90;;;;;;6198532;28;89041;-67
2022/08/27 15:08:14;;;;;;;8.85;8.00;;;24.50;99.90;;;;;;6191552;28;88452;-67
2022/08/27 15:11:18;;;;;;;8.82;7.93;;;24.50;99.90;;;;;;6192364;28;89100;-67
2022/08/27 15:14:24;;;;;;;9.23;8.32;;;24.50;99.90;;;;;;6193970;28;89352;-67
2022/08/27 15:17:26;;;;;;;9.77;8.60;;;24.50;99.90;;;;;;6193470;28;89835;-67
2022/08/27 15:20:29;;;;;;;8.82;8.10;;;24.50;99.90;;;;;;6193499;28;89615;-67
2022/08/27 15:23:31;;;;;;;9.18;8.27;;;24.50;99.90;;;;;;6201035;28;89076;-67
2022/08/27 15:26:34;;;;;;;9.82;8.82;;;24.50;99.90;;;;;;6182227;28;89268;-68
2022/08/27 15:29:36;;;;;;;9.52;8.60;;;24.50;99.90;;;;;;6183075;28;89461;-68
2022/08/27 15:32:42;;;;;;;9.30;8.48;;;24.50;99.90;;;;;;6195850;28;89340;-68
2022/08/27 15:35:45;;;;;;;9.38;8.57;;;24.50;99.90;;;;;;6192808;28;88740;-67
2022/08/27 15:38:47;;;;;;;9.95;8.10;;;24.50;99.90;;;;;;6194632;28;88223;-67
2022/08/27 15:41:50;;;;;;;9.35;8.55;;;24.50;99.90;;;;;;6191440;28;87968;-67
2022/08/27 15:44:55;;;;;;;9.43;8.52;;;24.60;99.90;;;;;;6184155;28;88240;-67
2022/08/27 15:47:58;;;;;;;9.32;8.52;;;24.60;99.90;;;;;;6200601;28;90159;-67
2022/08/27 15:51:06;;;;;;;8.68;7.90;;;24.60;99.90;;;;;;6198752;28;88189;-67
2022/08/27 15:54:08;;;;;;;10.20;8.32;;;24.60;99.90;;;;;;6186326;28;89209;-68
2022/08/27 15:57:10;;;;;;;9.23;8.32;;;24.60;99.90;;;;;;6199019;28;89235;-67
2022/08/27 16:00:15;;;;;;;8.65;7.95;;;24.60;99.90;;;;;;6196295;28;87982;-67
2022/08/27 16:03:17;;;;;;;8.35;7.55;;;24.60;99.90;;;;;;6194849;28;89427;-67
2022/08/27 16:06:20;;;;;;;8.73;7.90;;;24.70;99.90;;;;;;6198858;28;88962;-67
2022/08/27 16:09:23;;;;;;;8.68;7.72;;;24.60;99.90;;;;;;6193308;28;87612;-67
2022/08/27 16:12:25;;;;;;;8.60;7.80;;;24.60;99.90;;;;;;6200535;28;89023;-67